Time;durP1;ratioP1;P1;durP2;ratioP2;P2;SDS_P1;SDS_P2;PMS_P1;PMS_P2;Temp;Humidity;BMP_temperature;BMP_pressure;BME280_temperature;BME280_humidity;BME280_pressure;Samples;Min_cycle;Max_cycle;Signal;HPM_P1;HPM_P2
2022/10/01 00:01:14;;;;;;;2.50;1.10;;;;;;;23.46;55.57;96638.09;5036341;28;20021;-35
2022/10/01 00:03:41;;;;;;;3.95;1.20;;;;;;;23.35;55.90;96642.91;5036270;28;20041;-35
2022/10/01 00:06:09;;;;;;;3.50;1.02;;;;;;;23.41;55.63;96643.63;5036304;28;20029;-34
2022/10/01 00:08:36;;;;;;;3.22;1.20;;;;;;;23.40;55.75;96644.88;5036080;28;20026;-34
2022/10/01 00:11:10;;;;;;;1.60;0.98;;;;;;;23.41;55.75;96649.16;5036328;28;20094;-35
2022/10/01 00:13:37;;;;;;;3.17;1.05;;;;;;;23.44;55.44;96659.22;5036118;28;20094;-34
2022/10/01 00:16:13;;;;;;;5.68;1.10;;;;;;;23.34;55.73;96666.28;5036136;28;20032;-35
2022/10/01 00:18:40;;;;;;;4.03;1.02;;;;;;;23.43;55.66;96668.78;5036428;28;20091;-34
2022/10/01 00:21:11;;;;;;;1.95;1.40;;;;;;;23.37;55.79;96666.00;5036051;28;20075;-34
2022/10/01 00:23:37;;;;;;;4.38;1.20;;;;;;;23.34;55.99;96664.28;5035767;28;20049;-35
2022/10/01 00:26:21;;;;;;;3.33;1.20;;;;;;;23.38;55.83;96656.44;5036121;28;20068;-35
2022/10/01 00:28:53;;;;;;;3.28;1.00;;;;;;;23.33;55.98;96665.53;5034696;28;20108;-36
2022/10/01 00:31:19;;;;;;;1.92;0.90;;;;;;;23.36;55.79;96664.53;5036265;28;20100;-35
2022/10/01 00:33:44;;;;;;;2.42;1.00;;;;;;;23.38;55.74;96666.75;5035855;28;20029;-35
2022/10/01 00:36:10;;;;;;;5.40;1.20;;;;;;;23.41;55.84;96668.53;5035648;28;20382;-35
2022/10/01 00:38:37;;;;;;;5.82;1.20;;;;;;;23.36;55.90;96672.84;5035436;28;20049;-34
2022/10/01 00:41:03;;;;;;;2.85;1.10;;;;;;;23.33;55.72;96676.59;5035577;28;20480;-35
2022/10/01 00:43:36;;;;;;;2.90;1.15;;;;;;;23.33;56.07;96665.53;5035469;28;20057;-35
2022/10/01 00:46:08;;;;;;;4.18;1.40;;;;;;;23.36;55.92;96677.63;5035813;28;20017;-36
2022/10/01 00:48:41;;;;;;;3.97;1.10;;;;;;;23.41;55.71;96665.75;5035516;28;20021;-34
2022/10/01 00:51:06;;;;;;;3.33;1.23;;;;;;;23.41;55.99;96660.22;5034987;28;20473;-34
2022/10/01 00:53:32;;;;;;;4.07;1.45;;;;;;;23.32;56.14;96674.34;5035576;28;20087;-35
2022/10/01 00:55:58;;;;;;;4.35;1.38;;;;;;;23.34;55.93;96671.81;5035461;28;20021;-35
2022/10/01 00:58:25;;;;;;;5.18;1.48;;;;;;;23.35;56.29;96676.09;5035267;28;20037;-34
2022/10/01 01:00:54;;;;;;;2.90;1.20;;;;;;;23.34;56.26;96671.81;5035268;28;20029;-35
2022/10/01 01:03:19;;;;;;;5.10;1.35;;;;;;;23.31;55.93;96673.59;5035247;28;20036;-34
2022/10/01 01:05:46;;;;;;;3.78;1.85;;;;;;;23.36;55.89;96674.84;5035072;28;20021;-35
2022/10/01 01:08:13;;;;;;;4.80;1.30;;;;;;;23.32;56.38;96674.34;5034939;28;20401;-34
2022/10/01 01:11:14;;;;;;;5.35;1.75;;;;;;;23.27;56.38;96679.38;5034960;28;20033;-35
2022/10/01 01:13:54;;;;;;;3.22;1.30;;;;;;;23.27;56.34;96684.91;5033946;28;20382;-34
2022/10/01 01:16:33;;;;;;;3.58;1.20;;;;;;;23.31;56.19;96681.88;5034812;28;20520;-35
2022/10/01 01:19:13;;;;;;;3.95;1.88;;;;;;;23.35;56.05;96682.38;5035438;28;20032;-34
2022/10/01 01:21:50;;;;;;;4.50;1.25;;;;;;;23.24;56.29;96674.84;5035243;28;20022;-34
2022/10/01 01:24:46;;;;;;;3.10;1.70;;;;;;;23.26;56.29;96675.09;5034726;28;20108;-35
2022/10/01 01:27:39;;;;;;;3.47;1.40;;;;;;;23.25;56.52;96687.41;5034721;28;20467;-35
2022/10/01 01:30:04;;;;;;;2.92;1.13;;;;;;;23.28;56.27;96680.13;5034662;28;20105;-35
2022/10/01 01:32:40;;;;;;;3.15;1.60;;;;;;;23.29;56.44;96684.41;5034446;28;20167;-34
2022/10/01 01:35:10;;;;;;;3.25;1.20;;;;;;;23.20;56.60;96677.13;5034488;28;20097;-35
2022/10/01 01:37:41;;;;;;;4.47;1.58;;;;;;;23.29;56.43;96676.09;5034616;28;20028;-35
2022/10/01 01:40:10;;;;;;;2.20;1.25;;;;;;;23.26;56.53;96682.63;5034500;28;20187;-34
2022/10/01 01:42:38;;;;;;;2.40;1.30;;;;;;;23.23;56.51;96691.97;5034825;28;20060;-34
2022/10/01 01:45:09;;;;;;;2.15;1.38;;;;;;;23.24;56.37;96688.66;5034289;28;20036;-36
2022/10/01 01:47:37;;;;;;;2.38;1.10;;;;;;;23.22;56.28;96693.22;5034461;28;20026;-35
2022/10/01 01:50:07;;;;;;;2.20;0.95;;;;;;;23.21;56.48;96700.75;5034443;28;20043;-35
2022/10/01 01:52:33;;;;;;;2.95;1.55;;;;;;;23.22;56.66;96699.50;5034280;28;20485;-35
2022/10/01 01:55:00;;;;;;;2.63;1.15;;;;;;;23.27;56.53;96686.91;5034423;28;20056;-34
2022/10/01 01:57:26;;;;;;;2.75;1.40;;;;;;;23.17;56.72;96697.50;5034056;28;20033;-35
2022/10/01 01:59:52;;;;;;;2.22;1.05;;;;;;;23.26;56.39;96691.69;5034119;28;20027;-34
2022/10/01 02:02:27;;;;;;;3.30;1.25;;;;;;;23.23;56.42;96692.72;5032230;28;20384;-35
2022/10/01 02:04:56;;;;;;;1.90;0.98;;;;;;;23.25;56.46;96684.66;5034191;28;20053;-35
2022/10/01 02:07:27;;;;;;;2.25;1.20;;;;;;;23.27;56.40;96692.44;5033845;28;20060;-35
2022/10/01 02:10:17;;;;;;;2.65;1.20;;;;;;;23.22;56.76;96699.50;5033858;28;20079;-35
2022/10/01 02:12:52;;;;;;;2.85;1.08;;;;;;;23.18;56.62;96687.94;5034155;28;20100;-35
2022/10/01 02:15:40;;;;;;;2.20;1.02;;;;;;;23.23;56.41;96695.47;5033804;28;20029;-35
2022/10/01 02:18:21;;;;;;;1.95;1.20;;;;;;;23.21;56.49;96691.72;5033973;28;20021;-35
2022/10/01 02:21:15;;;;;;;2.00;1.10;;;;;;;23.22;56.47;96691.22;5033751;28;20462;-35
2022/10/01 02:24:16;;;;;;;2.38;1.10;;;;;;;23.22;56.18;96702.28;5033464;28;20045;-35
2022/10/01 02:26:46;;;;;;;2.30;1.23;;;;;;;23.23;56.43;96701.03;5033493;28;20171;-35
2022/10/01 02:29:16;;;;;;;1.88;1.15;;;;;;;23.23;56.35;96698.25;5033718;28;20037;-35
2022/10/01 02:31:46;;;;;;;2.13;1.23;;;;;;;23.25;56.22;96697.72;5033932;28;20021;-35
2022/10/01 02:34:14;;;;;;;1.60;1.00;;;;;;;23.19;56.62;96699.75;5033563;28;20024;-35
2022/10/01 02:36:44;;;;;;;3.13;1.30;;;;;;;23.20;56.68;96690.19;5033646;28;20111;-34
2022/10/01 02:39:11;;;;;;;2.03;0.90;;;;;;;23.19;56.19;96689.44;5033346;28;20054;-35
2022/10/01 02:41:37;;;;;;;1.65;1.20;;;;;;;23.20;56.22;96682.66;5033862;28;20124;-35
2022/10/01 02:44:03;;;;;;;2.05;1.10;;;;;;;23.21;56.14;96686.94;5033371;28;20108;-34
2022/10/01 02:46:57;;;;;;;2.13;1.08;;;;;;;23.20;56.26;96690.94;5033377;28;20056;-35
2022/10/01 02:49:23;;;;;;;4.15;1.63;;;;;;;23.18;56.19;96699.00;5033019;28;20048;-34
2022/10/01 02:52:01;;;;;;;1.60;0.90;;;;;;;23.17;56.49;96699.50;5033327;28;20083;-35
2022/10/01 02:54:33;;;;;;;2.80;1.02;;;;;;;23.15;56.46;96688.19;5033837;28;20473;-35
2022/10/01 02:59:43;;;;;;;2.42;1.02;;;;;;;23.12;56.52;96694.75;5033331;28;20039;-34
2022/10/01 03:02:09;;;;;;;2.53;1.13;;;;;;;23.15;56.51;96702.00;5033098;28;21524;-35
2022/10/01 03:04:35;;;;;;;1.85;1.00;;;;;;;23.11;56.65;96704.28;5033576;28;20103;-35
2022/10/01 03:07:02;;;;;;;2.58;1.10;;;;;;;23.15;56.38;96700.00;5033327;28;20474;-35
2022/10/01 03:09:33;;;;;;;2.70;1.30;;;;;;;23.10;56.61;96695.25;5033140;28;20032;-34
2022/10/01 03:12:00;;;;;;;1.55;0.77;;;;;;;23.16;56.34;96700.75;5033211;28;20104;-35
2022/10/01 03:14:25;;;;;;;2.13;1.30;;;;;;;23.14;56.47;96706.03;5036764;28;20036;-35
2022/10/01 03:16:52;;;;;;;1.83;0.82;;;;;;;23.10;56.49;96709.06;5037195;28;20029;-35
2022/10/01 03:19:18;;;;;;;1.92;1.10;;;;;;;23.14;56.48;96709.56;5037120;28;20013;-35
2022/10/01 03:21:44;;;;;;;3.13;1.40;;;;;;;23.15;56.22;96713.84;5037176;28;20392;-35
2022/10/01 03:24:09;;;;;;;2.88;1.23;;;;;;;23.17;55.96;96714.09;5036942;28;20040;-35
2022/10/01 03:26:35;;;;;;;2.10;1.30;;;;;;;23.12;56.43;96711.34;5035674;28;20025;-35
2022/10/01 03:29:01;;;;;;;3.22;1.50;;;;;;;23.12;56.33;96719.63;5036866;28;20029;-35
2022/10/01 03:31:27;;;;;;;3.35;1.10;;;;;;;23.11;56.11;96721.66;5037039;28;20122;-35
2022/10/01 03:33:52;;;;;;;2.08;1.00;;;;;;;23.10;56.39;96727.69;5036836;28;20041;-35
2022/10/01 03:36:18;;;;;;;2.92;1.20;;;;;;;23.11;56.46;96727.19;5036696;28;20024;-34
2022/10/01 03:38:43;;;;;;;3.17;1.33;;;;;;;23.10;56.05;96724.91;5036575;28;20211;-35
2022/10/01 03:41:09;;;;;;;2.45;1.02;;;;;;;23.13;56.01;96724.66;5036690;28;20093;-35
2022/10/01 03:43:35;;;;;;;2.55;1.30;;;;;;;23.06;56.15;96732.69;5036608;28;20117;-35
2022/10/01 03:46:03;;;;;;;1.60;1.25;;;;;;;23.05;56.22;96736.72;5036613;28;20026;-34
2022/10/01 03:48:29;;;;;;;2.45;1.10;;;;;;;23.10;56.06;96736.72;5036653;28;20025;-36
2022/10/01 03:50:58;;;;;;;2.50;1.20;;;;;;;23.07;56.16;96748.03;5036697;28;20495;-34
2022/10/01 03:53:26;;;;;;;2.38;1.20;;;;;;;23.07;56.14;96746.03;5036965;28;20218;-35
2022/10/01 03:55:53;;;;;;;2.13;0.95;;;;;;;23.02;56.32;96741.25;5035283;28;20408;-35
2022/10/01 03:58:18;;;;;;;2.25;1.02;;;;;;;23.06;56.04;96744.53;5036295;28;20521;-35
2022/10/01 04:00:46;;;;;;;0.90;0.80;;;;;;;23.03;56.05;96736.47;5036349;28;20035;-34
2022/10/01 04:03:12;;;;;;;1.27;0.82;;;;;;;23.05;56.02;96739.47;5035011;28;20504;-35
2022/10/01 04:05:38;;;;;;;1.92;1.10;;;;;;;22.98;56.46;96746.28;5036152;28;20088;-35
2022/10/01 04:08:03;;;;;;;2.28;1.00;;;;;;;22.96;56.71;96740.50;5036548;28;20456;-34
2022/10/01 04:10:29;;;;;;;3.22;1.10;;;;;;;23.03;56.04;96748.28;5036340;28;20029;-34
2022/10/01 04:12:54;;;;;;;1.45;0.98;;;;;;;23.01;56.09;96745.25;5036293;28;20129;-34
2022/10/01 04:15:21;;;;;;;2.13;1.17;;;;;;;23.01;56.20;96742.50;5036210;28;20365;-35
2022/10/01 04:17:47;;;;;;;1.40;1.00;;;;;;;22.97;56.28;96750.31;5036108;28;20442;-35
2022/10/01 04:20:13;;;;;;;2.50;1.40;;;;;;;23.03;56.00;96742.00;5036198;28;20442;-34
2022/10/01 04:22:39;;;;;;;1.42;0.82;;;;;;;23.02;55.97;96746.00;5036112;28;20040;-35
2022/10/01 04:25:06;;;;;;;2.47;0.93;;;;;;;22.97;56.21;96744.00;5034956;28;20115;-35
2022/10/01 04:27:32;;;;;;;2.58;1.10;;;;;;;22.99;56.23;96742.25;5035739;28;20029;-35
2022/10/01 04:29:57;;;;;;;1.33;0.80;;;;;;;22.94;56.16;96762.34;5034468;28;20532;-35
2022/10/01 04:32:23;;;;;;;0.90;0.80;;;;;;;22.98;56.04;96756.59;5035683;28;20484;-35
2022/10/01 04:34:51;;;;;;;2.80;0.98;;;;;;;22.97;56.25;96746.78;5036134;28;20514;-36
2022/10/01 04:37:17;;;;;;;2.25;0.90;;;;;;;22.97;56.06;96764.13;5035795;28;20030;-34
2022/10/01 04:39:42;;;;;;;2.47;0.80;;;;;;;22.95;56.28;96766.63;5035470;28;20495;-35
2022/10/01 04:42:08;;;;;;;2.25;0.90;;;;;;;23.02;56.21;96768.91;5035694;28;20026;-35
2022/10/01 04:44:34;;;;;;;1.80;0.82;;;;;;;22.93;56.24;96777.44;5034422;28;20082;-35
2022/10/01 04:46:59;;;;;;;1.77;0.90;;;;;;;22.89;56.46;96785.22;5035430;28;20029;-35
2022/10/01 04:49:25;;;;;;;2.05;0.80;;;;;;;22.95;56.15;96790.78;5035737;28;20053;-35
2022/10/01 04:51:50;;;;;;;1.30;0.68;;;;;;;22.93;56.77;96788.50;5035310;28;20021;-34
2022/10/01 04:54:16;;;;;;;2.33;0.90;;;;;;;22.95;56.39;96797.06;5035411;28;20036;-35
2022/10/01 04:56:41;;;;;;;1.30;0.80;;;;;;;22.96;56.49;96798.56;5035358;28;20029;-35
2022/10/01 04:59:06;;;;;;;1.10;0.80;;;;;;;22.94;56.33;96798.31;5035128;28;20025;-34
2022/10/01 05:01:32;;;;;;;2.20;0.80;;;;;;;22.90;56.68;96800.56;5035573;28;20025;-34
2022/10/01 05:03:58;;;;;;;0.85;0.68;;;;;;;22.93;56.25;96799.56;5035235;28;20381;-36
2022/10/01 05:06:24;;;;;;;1.30;0.90;;;;;;;23.00;55.98;96807.38;5035142;28;20025;-35
2022/10/01 05:08:51;;;;;;;1.45;0.65;;;;;;;22.94;56.27;96803.84;5034872;28;20083;-35
2022/10/01 05:11:17;;;;;;;1.15;0.80;;;;;;;22.92;56.63;96811.88;5035170;28;20025;-35
2022/10/01 05:13:43;;;;;;;1.08;0.75;;;;;;;22.87;56.95;96818.16;5035207;28;20033;-34
2022/10/01 05:16:08;;;;;;;1.15;0.63;;;;;;;22.93;56.62;96827.22;5034967;28;20029;-35
2022/10/01 05:18:34;;;;;;;2.15;0.80;;;;;;;22.95;56.25;96821.94;5034839;28;20057;-35
2022/10/01 05:21:04;;;;;;;1.15;0.75;;;;;;;22.95;56.17;96826.72;5034785;28;20033;-35
2022/10/01 05:23:30;;;;;;;1.25;0.70;;;;;;;22.90;56.72;96828.97;5034773;28;20025;-35
2022/10/01 05:25:55;;;;;;;0.98;0.73;;;;;;;22.88;56.45;96825.19;5033974;28;20032;-34
2022/10/01 05:28:21;;;;;;;1.25;0.90;;;;;;;22.85;56.64;96828.97;5034856;28;20025;-35
2022/10/01 05:30:46;;;;;;;1.20;0.85;;;;;;;22.84;56.77;96822.69;5034547;28;20021;-34
2022/10/01 05:33:12;;;;;;;1.77;0.70;;;;;;;22.89;56.77;96840.53;5034861;28;20022;-35
2022/10/01 05:35:39;;;;;;;0.82;0.68;;;;;;;22.88;56.40;96833.47;5034454;28;20512;-35
2022/10/01 05:38:05;;;;;;;2.05;0.80;;;;;;;22.89;56.66;96837.75;5033010;28;20045;-35
2022/10/01 05:40:32;;;;;;;0.90;0.70;;;;;;;22.88;56.39;96844.53;5034424;28;20485;-34
2022/10/01 05:42:59;;;;;;;2.28;0.88;;;;;;;22.88;56.44;96853.59;5034439;28;20026;-36
2022/10/01 05:45:27;;;;;;;0.98;0.73;;;;;;;22.92;56.72;96856.13;5034471;28;20026;-35
2022/10/01 05:48:00;;;;;;;0.93;0.82;;;;;;;22.89;56.64;96851.59;5034320;28;20048;-35
2022/10/01 05:50:30;;;;;;;1.63;0.95;;;;;;;22.88;56.67;96842.53;5034079;28;20021;-35
2022/10/01 05:52:55;;;;;;;1.92;0.52;;;;;;;22.81;56.95;96856.09;5034443;28;20021;-35
2022/10/01 05:55:22;;;;;;;1.80;0.98;;;;;;;22.87;56.39;96854.13;5034075;28;20029;-35
2022/10/01 05:58:06;;;;;;;3.22;0.88;;;;;;;22.88;56.36;96856.38;5034229;28;20056;-34
2022/10/01 06:00:34;;;;;;;1.48;0.80;;;;;;;22.84;56.40;96866.94;5034099;28;20100;-35
2022/10/01 06:03:01;;;;;;;2.63;0.82;;;;;;;22.84;56.67;96866.19;5034255;28;20033;-34
2022/10/01 06:05:29;;;;;;;1.67;0.80;;;;;;;22.85;56.33;96885.03;5033989;28;20017;-34
2022/10/01 06:07:55;;;;;;;2.83;1.00;;;;;;;22.84;56.73;96880.75;5033917;28;20057;-35
2022/10/01 06:10:21;;;;;;;1.85;0.65;;;;;;;22.91;56.14;96879.50;5033839;28;20029;-34
2022/10/01 06:12:47;;;;;;;2.60;0.82;;;;;;;22.86;56.47;96885.78;5034183;28;20025;-35
2022/10/01 06:15:14;;;;;;;2.92;0.80;;;;;;;22.81;56.76;96892.06;5033718;28;20030;-34
2022/10/01 06:17:44;;;;;;;1.90;0.80;;;;;;;22.84;56.44;96880.00;5033699;28;20025;-35
2022/10/01 06:20:19;;;;;;;1.67;0.77;;;;;;;22.88;56.51;96891.56;5033762;28;20520;-35
2022/10/01 06:22:52;;;;;;;1.60;0.85;;;;;;;22.92;55.98;96892.84;5033958;28;20145;-35
2022/10/01 06:25:18;;;;;;;3.63;0.88;;;;;;;22.84;56.51;96891.06;5033425;28;20021;-35
2022/10/01 06:27:43;;;;;;;1.92;0.70;;;;;;;22.85;56.27;96885.03;5033694;28;20029;-34
2022/10/01 06:30:09;;;;;;;2.67;0.80;;;;;;;22.84;56.27;96891.81;5033524;28;20032;-34
2022/10/01 06:32:35;;;;;;;3.33;0.98;;;;;;;22.89;56.04;96893.84;5033752;28;20032;-35
2022/10/01 06:35:01;;;;;;;1.60;0.73;;;;;;;22.84;56.49;96891.06;5033737;28;20406;-35
2022/10/01 06:37:27;;;;;;;2.25;0.60;;;;;;;22.80;56.57;96888.53;5033333;28;20028;-32
2022/10/01 06:39:53;;;;;;;2.08;0.85;;;;;;;22.84;56.40;96891.06;5033439;28;20032;-35
2022/10/01 06:42:18;;;;;;;2.05;1.05;;;;;;;22.80;56.66;96885.75;5033495;28;20025;-35
2022/10/01 06:44:43;;;;;;;1.27;0.75;;;;;;;22.80;56.54;96890.53;5032164;28;20360;-35
2022/10/01 06:47:09;;;;;;;1.67;0.73;;;;;;;22.81;56.54;96886.53;5032980;28;20100;-35
2022/10/01 06:49:34;;;;;;;1.15;0.60;;;;;;;22.79;56.69;96884.25;5033507;28;20026;-35
2022/10/01 06:54:44;;;;;;;2.58;0.70;;;;;;;22.75;56.53;96905.06;5023243;28;20024;-35
2022/10/01 06:57:10;;;;;;;2.40;0.70;;;;;;;22.82;56.66;96910.91;5031853;28;20033;-34
2022/10/01 06:59:36;;;;;;;2.70;0.85;;;;;;;22.86;56.29;96910.69;5014053;28;20030;-35
2022/10/01 07:02:02;;;;;;;2.45;0.60;;;;;;;22.75;56.51;96916.88;5010587;28;20084;-34
2022/10/01 07:04:28;;;;;;;1.33;0.70;;;;;;;22.69;56.77;96909.81;5011487;28;20474;-35
2022/10/01 07:06:54;;;;;;;3.63;0.82;;;;;;;22.77;56.87;96924.69;5012016;28;20057;-35
2022/10/01 07:09:24;;;;;;;3.85;0.90;;;;;;;22.68;56.74;96920.13;5011979;28;20030;-35
2022/10/01 07:11:49;;;;;;;2.28;0.80;;;;;;;22.61;57.24;96914.31;5012027;28;20034;-34
2022/10/01 07:14:14;;;;;;;1.33;0.70;;;;;;;22.66;57.18;96919.09;5011870;28;20037;-35
2022/10/01 07:16:40;;;;;;;1.05;0.60;;;;;;;22.64;57.46;96916.81;5011832;28;20029;-34
2022/10/01 07:19:05;;;;;;;1.85;0.77;;;;;;;22.72;57.01;96922.66;5011960;28;20026;-35
2022/10/01 07:21:31;;;;;;;3.15;1.02;;;;;;;22.76;56.82;96926.72;5011933;28;20022;-36
2022/10/01 07:23:56;;;;;;;2.42;0.85;;;;;;;22.83;56.70;96922.72;5011882;28;20109;-35
2022/10/01 07:26:22;;;;;;;2.15;0.68;;;;;;;22.72;57.25;96926.19;5011870;28;20399;-34
2022/10/01 07:28:47;;;;;;;4.10;0.80;;;;;;;22.81;56.56;96925.22;5011453;28;20478;-35
2022/10/01 07:31:12;;;;;;;2.83;0.85;;;;;;;22.82;56.64;96927.50;5011882;28;20034;-35
2022/10/01 07:33:39;;;;;;;1.83;0.65;;;;;;;22.84;56.82;96927.00;5011886;28;20438;-35
2022/10/01 07:36:06;;;;;;;2.58;0.70;;;;;;;22.75;57.09;96924.44;5011847;28;20034;-35
2022/10/01 07:38:32;;;;;;;2.47;0.77;;;;;;;22.76;56.98;96929.47;5011554;28;20046;-35
2022/10/01 07:41:01;;;;;;;2.45;0.80;;;;;;;22.85;56.52;96926.53;5011388;28;20033;-35
2022/10/01 07:43:27;;;;;;;1.05;0.60;;;;;;;22.82;56.75;96940.56;5011450;28;20037;-35
2022/10/01 07:45:56;;;;;;;1.38;0.85;;;;;;;22.82;56.62;96935.81;5011452;28;20525;-35
2022/10/01 07:48:26;;;;;;;1.60;0.73;;;;;;;22.27;58.29;96943.72;5029618;28;20061;-32
2022/10/01 07:50:52;;;;;;;4.45;2.10;;;;;;;21.97;59.88;96943.22;5030764;28;20864;-34
2022/10/01 07:53:18;;;;;;;3.28;1.80;;;;;;;22.24;59.22;96948.25;5031081;28;20029;-34
2022/10/01 07:55:44;;;;;;;3.67;1.65;;;;;;;22.47;58.24;96932.56;5031299;28;20064;-35
2022/10/01 07:58:13;;;;;;;2.78;1.60;;;;;;;22.67;58.00;96940.72;5031207;28;20049;-34
2022/10/01 08:00:38;;;;;;;3.25;1.70;;;;;;;22.63;57.75;96947.72;5026700;28;20030;-35
2022/10/01 08:03:04;;;;;;;4.47;1.52;;;;;;;22.81;57.09;96950.88;5013642;28;20257;-34
2022/10/01 08:05:32;;;;;;;2.25;1.60;;;;;;;22.91;56.82;96946.66;5014734;28;20034;-34
2022/10/01 08:07:59;;;;;;;3.25;1.63;;;;;;;22.88;56.82;96947.63;5015572;28;20033;-34
2022/10/01 08:10:25;;;;;;;2.65;1.40;;;;;;;22.90;56.44;96941.59;5016350;28;20042;-34
2022/10/01 08:12:50;;;;;;;3.00;1.52;;;;;;;22.88;56.71;96953.16;5016671;28;20025;-34
2022/10/01 08:15:17;;;;;;;1.20;1.10;;;;;;;22.91;56.68;96957.72;5016728;28;20218;-34
2022/10/01 08:17:43;;;;;;;2.45;1.20;;;;;;;22.87;56.40;96956.44;5015915;28;20382;-34
2022/10/01 08:20:11;;;;;;;3.22;1.27;;;;;;;22.83;56.95;96967.72;5016570;28;20405;-34
2022/10/01 08:22:36;;;;;;;2.95;1.40;;;;;;;22.81;57.14;96975.75;5016320;28;20459;-34
2022/10/01 08:25:03;;;;;;;3.05;1.23;;;;;;;22.87;56.38;96973.78;5016121;28;20036;-34
2022/10/01 08:27:28;;;;;;;2.47;1.02;;;;;;;22.86;56.79;96983.34;5016013;28;20493;-34
2022/10/01 08:29:54;;;;;;;1.70;1.20;;;;;;;22.84;56.60;96969.25;5016168;28;20026;-34
2022/10/01 08:32:21;;;;;;;2.30;1.00;;;;;;;22.83;56.44;96984.31;5015953;28;20033;-33
2022/10/01 08:34:47;;;;;;;2.95;1.13;;;;;;;22.83;56.61;96980.81;5015969;28;20101;-35
2022/10/01 08:37:13;;;;;;;1.20;0.95;;;;;;;22.83;56.17;96987.09;5016301;28;20033;-34
2022/10/01 08:39:38;;;;;;;3.05;0.90;;;;;;;22.92;56.55;96997.19;5015749;28;20046;-34
2022/10/01 08:42:10;;;;;;;1.80;1.10;;;;;;;22.89;56.23;96995.41;5015911;28;20030;-34
2022/10/01 08:44:40;;;;;;;1.38;0.88;;;;;;;22.91;56.67;96995.66;5015747;28;20029;-34
2022/10/01 08:47:48;;;;;;;6.32;1.15;;;;;;;22.84;56.73;96985.09;5017111;28;20026;-34
2022/10/01 08:50:23;;;;;;;1.33;1.05;;;;;;;22.91;56.52;96999.19;5034700;28;20048;-34
2022/10/01 08:52:55;;;;;;;3.40;0.90;;;;;;;22.88;56.55;96985.59;5054473;28;20032;-34
2022/10/01 08:55:24;;;;;;;2.58;0.80;;;;;;;22.92;56.29;96994.41;5048735;28;20033;-34
2022/10/01 08:58:02;;;;;;;1.00;0.80;;;;;;;22.90;55.87;96997.69;5026205;28;20025;-34
2022/10/01 09:00:31;;;;;;;1.25;0.80;;;;;;;22.88;56.32;96991.13;5015438;28;20485;-34
2022/10/01 09:03:00;;;;;;;0.90;0.73;;;;;;;22.88;56.00;96991.13;5015546;28;20029;-34
2022/10/01 09:05:59;;;;;;;1.92;1.00;;;;;;;22.91;55.99;97006.72;5015320;28;20026;-34
2022/10/01 09:08:53;;;;;;;1.35;0.65;;;;;;;22.92;56.26;97002.72;5015506;28;20026;-34
2022/10/01 09:11:30;;;;;;;1.40;0.68;;;;;;;22.90;55.99;97005.22;5016985;28;20451;-34
2022/10/01 09:14:14;;;;;;;2.40;0.73;;;;;;;22.72;56.36;97005.59;5022967;28;20032;-34
2022/10/01 09:17:20;;;;;;;1.25;0.70;;;;;;;22.67;56.66;97012.59;5035283;28;20100;-34
2022/10/01 09:20:00;;;;;;;2.13;0.90;;;;;;;22.78;56.49;97000.88;5021662;28;20033;-34
2022/10/01 09:22:46;;;;;;;1.50;0.75;;;;;;;22.80;56.28;97006.69;5014811;28;20030;-34
2022/10/01 09:25:24;;;;;;;1.48;0.70;;;;;;;22.69;56.66;97001.06;5013857;28;20025;-33
2022/10/01 09:27:55;;;;;;;1.23;0.57;;;;;;;22.81;56.38;96991.59;5015288;28;20026;-34
2022/10/01 09:30:24;;;;;;;0.80;0.50;;;;;;;22.70;56.29;96988.75;5015131;28;20033;-34
2022/10/01 09:33:02;;;;;;;2.40;0.70;;;;;;;22.63;56.19;96994.72;5014893;28;20109;-34
2022/10/01 09:35:28;;;;;;;1.15;0.63;;;;;;;22.80;55.84;96993.59;5014542;28;20101;-34
2022/10/01 09:38:19;;;;;;;0.85;0.60;;;;;;;22.85;55.70;96998.44;5014858;28;20077;-34
2022/10/01 09:40:56;;;;;;;1.42;0.60;;;;;;;22.81;55.55;97002.66;5013349;28;20030;-34
2022/10/01 09:43:25;;;;;;;0.80;0.47;;;;;;;22.86;55.66;96999.94;5014778;28;20394;-34
2022/10/01 09:45:51;;;;;;;1.33;0.65;;;;;;;22.80;55.82;97001.16;5025769;28;20035;-34
2022/10/01 09:48:23;;;;;;;0.95;0.60;;;;;;;22.88;55.31;97002.94;5034214;28;20033;-34
2022/10/01 09:50:55;;;;;;;1.55;0.60;;;;;;;22.81;55.39;96997.88;5016101;28;20030;-34
2022/10/01 09:53:26;;;;;;;1.38;0.80;;;;;;;22.85;55.02;96994.91;5027670;28;20131;-34
2022/10/01 09:55:57;;;;;;;2.63;0.70;;;;;;;22.88;54.81;97010.47;5027590;28;20064;-34
2022/10/01 09:58:25;;;;;;;0.77;0.60;;;;;;;22.92;55.01;97006.25;5019961;28;20104;-34
2022/10/01 10:00:53;;;;;;;1.80;0.70;;;;;;;22.80;55.19;97006.69;5033749;28;20029;-34
2022/10/01 10:03:29;;;;;;;1.27;0.70;;;;;;;22.83;55.04;97000.91;5034337;28;20398;-34
2022/10/01 10:05:55;;;;;;;1.23;0.57;;;;;;;22.81;55.05;97003.41;5032722;28;20025;-35
2022/10/01 10:08:34;;;;;;;1.40;0.80;;;;;;;22.91;54.85;97001.97;5032338;28;20500;-34
2022/10/01 10:11:04;;;;;;;1.63;0.75;;;;;;;22.88;54.72;97002.94;5033701;28;20071;-34
2022/10/01 10:13:37;;;;;;;1.27;0.70;;;;;;;22.86;54.96;96999.94;5034439;28;20377;-33
2022/10/01 10:16:23;;;;;;;;;;;;;;;22.77;54.48;97008.41;5034470;28;20025;-34
2022/10/01 10:18:52;;;;;;;1.25;0.75;;;;;;;22.84;54.89;97009.97;5033845;28;19909;-34
2022/10/01 10:21:26;;;;;;;2.35;0.70;;;;;;;22.88;54.49;96991.88;5033881;28;20044;-34
2022/10/01 10:23:55;;;;;;;2.05;0.50;;;;;;;22.77;55.00;97008.41;5033099;28;20021;-34
2022/10/01 10:26:30;;;;;;;1.35;0.57;;;;;;;22.70;54.94;97002.56;5032573;28;20025;-34
2022/10/01 10:28:57;;;;;;;0.93;0.60;;;;;;;22.61;55.41;97000.00;5032521;28;20024;-34
2022/10/01 10:31:26;;;;;;;1.73;0.60;;;;;;;22.81;54.69;97002.66;5032614;28;20029;-34
2022/10/01 10:34:16;;;;;;;0.80;0.50;;;;;;;22.75;54.20;96999.81;5033594;28;20096;-34
2022/10/01 10:36:43;;;;;;;1.10;0.70;;;;;;;22.86;54.00;96993.66;5033723;28;20104;-34
2022/10/01 10:39:28;;;;;;;1.33;0.47;;;;;;;22.73;54.60;96991.28;5033458;28;20048;-34
2022/10/01 10:41:55;;;;;;;1.13;0.50;;;;;;;22.86;54.00;96982.59;5033387;28;20029;-34
2022/10/01 10:44:23;;;;;;;1.10;0.57;;;;;;;22.92;53.75;96980.59;5033437;28;20056;-34
2022/10/01 10:46:50;;;;;;;1.55;0.77;;;;;;;22.89;53.69;96992.63;5033642;28;20470;-34
2022/10/01 10:49:29;;;;;;;0.93;0.50;;;;;;;22.76;53.64;96993.06;5033073;28;20113;-34
2022/10/01 10:51:59;;;;;;;0.60;0.40;;;;;;;22.80;53.79;96984.56;5033571;28;20112;-34
2022/10/01 10:54:39;;;;;;;0.57;0.40;;;;;;;22.83;53.33;96978.03;5033313;28;20482;-34
2022/10/01 10:57:28;;;;;;;0.68;0.40;;;;;;;22.20;53.51;96995.44;5033629;28;20033;-34
2022/10/01 10:59:54;;;;;;;0.40;0.40;;;;;;;22.57;53.15;96980.88;5033367;28;20021;-34
2022/10/01 11:02:20;;;;;;;1.00;0.65;;;;;;;;;;5032168;28;20044;-34
2022/10/01 11:04:46;;;;;;;2.33;0.65;;;;;;;22.89;53.01;96981.56;5033485;28;20100;-34
2022/10/01 11:07:20;;;;;;;2.30;0.75;;;;;;;22.83;53.00;96987.09;5033581;28;20060;-34
2022/10/01 11:09:54;;;;;;;0.60;0.30;;;;;;;22.72;52.59;96983.47;5033217;28;20048;-34
2022/10/01 11:12:27;;;;;;;1.40;0.50;;;;;;;22.41;51.73;96982.25;5033252;28;20363;-34
2022/10/01 11:15:02;;;;;;;;;;;;;;;22.10;50.41;96985.81;5033652;28;20075;-34
2022/10/01 11:17:45;;;;;;;0.77;0.43;;;;;;;22.46;53.36;96992.63;5033198;28;19963;-33
2022/10/01 11:20:36;;;;;;;0.45;0.30;;;;;;;22.52;52.55;96993.41;5033193;28;20018;-34
2022/10/01 11:23:28;;;;;;;1.10;0.40;;;;;;;22.27;50.65;96998.97;5033268;28;20166;-34
2022/10/01 11:26:37;;;;;;;0.60;0.35;;;;;;;22.55;52.46;96997.94;5033213;28;20389;-34
2022/10/01 11:29:30;;;;;;;1.08;0.40;;;;;;;22.81;51.16;96997.13;5032973;28;20081;-34
2022/10/01 11:32:18;;;;;;;1.25;0.43;;;;;;;22.23;48.56;96992.94;5033002;28;20053;-34
2022/10/01 11:35:03;;;;;;;2.85;0.30;;;;;;;22.35;50.60;96994.53;5035526;28;20028;-34
2022/10/01 11:38:07;;;;;;;1.15;0.40;;;;;;;22.53;51.17;96992.16;5036639;28;20033;-33
2022/10/01 11:40:39;;;;;;;1.63;0.85;;;;;;;22.67;48.72;96982.19;5036834;28;20028;-34
2022/10/01 11:43:20;;;;;;;1.98;0.52;;;;;;;22.80;50.70;96973.50;5036979;28;20048;-35
2022/10/01 11:45:51;;;;;;;0.60;0.30;;;;;;;22.86;50.61;96966.75;5037203;28;20087;-34
2022/10/01 11:48:26;;;;;;;1.00;0.38;;;;;;;22.88;50.66;96964.22;5036746;28;20024;-34
2022/10/01 11:50:57;;;;;;;1.27;0.40;;;;;;;22.93;50.53;96965.50;5036609;28;20053;-33
2022/10/01 11:53:35;;;;;;;0.60;0.35;;;;;;;22.56;49.87;96963.53;5036779;28;20025;-34
2022/10/01 11:58:51;;;;;;;2.40;0.47;;;;;;;22.84;50.15;96976.78;5036380;28;20052;-34